Time;durP1;ratioP1;P1;durP2;ratioP2;P2;SDS_P1;SDS_P2;PMS_P1;PMS_P2;Temp;Humidity;BMP_temperature;BMP_pressure;BME280_temperature;BME280_humidity;BME280_pressure;Samples;Min_cycle;Max_cycle;Signal;HPM_P1;HPM_P2
2021/12/09 00:01:43;;;;;;;23.10;10.60;;;;;;;-3.59;76.72;99478.03;5117374;27;20040;-77
2021/12/09 00:04:14;;;;;;;17.67;8.45;;;;;;;-3.58;77.52;99475.38;5115634;27;20051;-77
2021/12/09 00:06:43;;;;;;;19.67;9.10;;;;;;;-3.61;77.28;99477.16;5116457;27;20088;-78
2021/12/09 00:09:14;;;;;;;21.40;10.23;;;;;;;-3.65;77.00;99474.53;5115374;27;20048;-77
2021/12/09 00:11:46;;;;;;;18.30;9.35;;;;;;;-3.57;77.86;99476.25;5115848;27;20043;-77
2021/12/09 00:14:18;;;;;;;18.15;7.82;;;;;;;-3.71;78.20;99479.81;5115674;28;20048;-77
2021/12/09 00:16:46;;;;;;;21.55;10.57;;;;;;;-3.54;78.20;99474.47;5117703;28;20046;-78
2021/12/09 00:19:14;;;;;;;19.10;9.05;;;;;;;-3.66;77.70;99477.16;5115474;28;20051;-77
2021/12/09 00:21:41;;;;;;;21.35;9.38;;;;;;;-3.58;78.20;99472.72;5115320;28;20056;-77
2021/12/09 00:24:10;;;;;;;18.02;8.27;;;;;;;-3.59;77.89;99468.31;5115434;28;20040;-77
2021/12/09 00:26:38;;;;;;;16.00;7.63;;;;;;;-3.83;77.80;99467.56;5115381;28;20052;-77
2021/12/09 00:29:06;;;;;;;16.58;7.53;;;;;;;-3.73;78.63;99470.16;5115390;28;20039;-77
2021/12/09 00:31:35;;;;;;;15.85;7.60;;;;;;;-3.71;78.01;99474.53;5115497;28;20401;-77
2021/12/09 00:34:03;;;;;;;19.38;8.90;;;;;;;-3.68;78.44;99478.94;5115274;28;20047;-77
2021/12/09 00:36:37;;;;;;;19.33;7.88;;;;;;;-3.56;77.19;99485.94;5114931;28;20039;-77
2021/12/09 00:39:06;;;;;;;16.30;7.38;;;;;;;-3.67;78.57;99489.50;5116347;28;20101;-77
2021/12/09 00:41:34;;;;;;;16.45;7.38;;;;;;;-3.82;78.84;99486.91;5115444;27;20412;-77
2021/12/09 00:44:02;;;;;;;16.40;7.50;;;;;;;-3.76;78.14;99484.25;5115338;28;20554;-77
2021/12/09 00:46:30;;;;;;;17.90;8.40;;;;;;;-3.66;77.82;99485.97;5115053;28;20047;-77
2021/12/09 00:48:59;;;;;;;19.45;8.80;;;;;;;-3.54;78.20;99487.66;5114994;27;20497;-77
2021/12/09 00:51:27;;;;;;;17.27;7.38;;;;;;;-3.67;78.33;99497.44;5114569;28;20488;-78
2021/12/09 00:53:54;;;;;;;14.93;7.32;;;;;;;-3.52;78.32;99501.75;5114519;27;20039;-77
2021/12/09 00:56:22;;;;;;;16.50;7.50;;;;;;;-3.80;78.65;99508.88;5114965;28;20054;-77
2021/12/09 00:58:50;;;;;;;15.73;8.02;;;;;;;-3.69;78.45;99495.66;5114911;27;20051;-77
2021/12/09 01:01:18;;;;;;;14.63;7.53;;;;;;;-3.71;78.53;99500.06;5114959;27;20048;-77
2021/12/09 01:03:45;;;;;;;16.95;7.35;;;;;;;-3.64;78.79;99493.88;5114516;28;20051;-77
2021/12/09 01:06:14;;;;;;;17.00;7.63;;;;;;;-3.61;78.37;99490.38;5114388;28;20047;-77
2021/12/09 01:08:43;;;;;;;21.80;8.98;;;;;;;-3.70;78.68;99489.50;5114282;28;20561;-77
2021/12/09 01:11:12;;;;;;;16.75;7.70;;;;;;;-3.86;79.66;99496.59;5114556;27;20102;-77
2021/12/09 01:13:39;;;;;;;18.50;8.07;;;;;;;-3.54;78.07;99482.38;5114795;28;20399;-77
2021/12/09 01:16:07;;;;;;;17.38;7.88;;;;;;;-3.64;79.04;99483.31;5114452;28;20051;-77
2021/12/09 01:18:36;;;;;;;16.75;7.65;;;;;;;-3.60;78.56;99476.28;5114418;28;20051;-77
2021/12/09 01:21:04;;;;;;;19.05;7.60;;;;;;;-3.53;78.69;99476.22;5114016;28;20056;-77
2021/12/09 01:23:33;;;;;;;18.73;8.80;;;;;;;-3.43;79.25;99473.56;5113969;28;20043;-77
2021/12/09 01:26:05;;;;;;;19.50;9.23;;;;;;;-3.59;79.18;99473.59;5114109;28;20062;-77
2021/12/09 01:28:42;;;;;;;19.13;8.55;;;;;;;-3.67;80.17;99471.03;5114918;28;20048;-77
2021/12/09 01:31:10;;;;;;;16.00;8.02;;;;;;;-3.69;80.52;99483.31;5115080;27;20063;-77
2021/12/09 01:33:37;;;;;;;21.30;9.18;;;;;;;-3.72;80.45;99480.69;5114353;27;20526;-77
2021/12/09 01:36:06;;;;;;;17.35;7.68;;;;;;;-3.70;80.35;99484.22;5114055;27;20504;-77
2021/12/09 01:38:35;;;;;;;19.00;8.32;;;;;;;-3.75;81.27;99482.50;5114044;27;20046;-77
2021/12/09 01:41:03;;;;;;;16.83;7.97;;;;;;;-3.64;80.59;99478.94;5114065;27;20044;-77
2021/12/09 01:43:31;;;;;;;20.20;8.18;;;;;;;-3.58;80.03;99478.00;5114078;27;20105;-77
2021/12/09 01:46:06;;;;;;;18.38;8.18;;;;;;;-3.61;80.29;99478.03;5114186;27;20043;-77
2021/12/09 01:48:33;;;;;;;16.42;7.45;;;;;;;-3.56;80.62;99492.06;5113594;27;20401;-77
2021/12/09 01:51:01;;;;;;;18.15;7.82;;;;;;;-3.68;80.57;99484.22;5114044;28;20043;-77
2021/12/09 01:53:29;;;;;;;19.33;8.82;;;;;;;-3.75;80.77;99487.78;5114000;28;20048;-77
2021/12/09 01:56:00;;;;;;;16.90;8.32;;;;;;;-3.54;79.81;99486.81;5113691;28;20047;-77
2021/12/09 01:58:28;;;;;;;15.50;8.05;;;;;;;-3.69;80.94;99495.66;5114976;27;20040;-77
2021/12/09 02:00:55;;;;;;;18.30;7.75;;;;;;;-3.56;80.35;99494.72;5114146;27;20374;-77
2021/12/09 02:03:23;;;;;;;17.08;8.00;;;;;;;-3.61;80.14;99498.28;5113448;27;20055;-77
2021/12/09 02:05:51;;;;;;;16.17;7.95;;;;;;;-3.62;80.85;99491.25;5113889;27;20036;-77
2021/12/09 02:08:19;;;;;;;20.88;9.02;;;;;;;-3.64;81.31;99491.25;5113769;27;20121;-77
2021/12/09 02:10:48;;;;;;;19.35;8.57;;;;;;;-3.74;81.45;99505.38;5114298;27;20051;-77
2021/12/09 02:13:18;;;;;;;16.27;7.35;;;;;;;-3.56;81.09;99494.72;5093218;28;20052;-77
2021/12/09 02:15:46;;;;;;;17.05;8.05;;;;;;;-3.78;81.78;99505.38;5093113;28;20044;-77
2021/12/09 02:18:15;;;;;;;18.38;8.73;;;;;;;-3.58;82.06;99496.50;5096451;28;20050;-77
2021/12/09 02:20:45;;;;;;;17.73;8.30;;;;;;;-3.46;81.16;99490.28;5113347;28;20051;-77
2021/12/09 02:23:16;;;;;;;20.52;9.23;;;;;;;-3.57;82.03;99497.38;5113441;28;20051;-77
2021/12/09 02:25:45;;;;;;;18.67;8.85;;;;;;;-3.53;80.99;99494.69;5114509;28;20093;-77
2021/12/09 02:28:14;;;;;;;18.90;9.35;;;;;;;-3.44;81.20;99487.66;5113553;28;20647;-77
2021/12/09 02:30:41;;;;;;;22.60;10.10;;;;;;;-3.53;82.22;99483.28;5113500;28;20054;-77
2021/12/09 02:33:09;;;;;;;23.17;10.18;;;;;;;-3.57;81.93;99482.41;5113171;28;20043;-77
2021/12/09 02:35:38;;;;;;;18.35;8.80;;;;;;;-3.44;80.90;99485.88;5116403;27;20053;-77
2021/12/09 02:38:08;;;;;;;16.80;8.43;;;;;;;-3.56;81.86;99486.78;5117621;27;20504;-77
2021/12/09 02:40:37;;;;;;;20.38;9.07;;;;;;;-3.48;82.36;99481.50;5117992;27;20143;-77
2021/12/09 02:43:08;;;;;;;17.55;8.57;;;;;;;-3.49;81.96;99488.53;5117437;28;20053;-77
2021/12/09 02:45:35;;;;;;;19.17;8.82;;;;;;;-3.57;81.72;99492.09;5120589;27;20047;-77
2021/12/09 02:48:04;;;;;;;18.33;8.95;;;;;;;-3.58;81.81;99485.94;5117291;27;20043;-77
2021/12/09 02:50:31;;;;;;;20.42;9.45;;;;;;;-3.61;83.02;99491.22;5117310;28;20059;-77
2021/12/09 02:52:59;;;;;;;17.70;8.75;;;;;;;-3.75;84.27;99486.00;5116978;27;20449;-77
2021/12/09 02:55:28;;;;;;;18.67;9.15;;;;;;;-3.59;82.65;99486.81;5117321;28;20058;-77
2021/12/09 02:57:56;;;;;;;33.35;15.95;;;;;;;-3.58;83.91;99485.06;5117163;27;20054;-77
2021/12/09 03:00:23;;;;;;;21.02;10.05;;;;;;;-3.53;83.39;99488.56;5117223;28;20377;-77
2021/12/09 03:02:51;;;;;;;18.75;8.80;;;;;;;-3.55;84.00;99490.31;5116754;28;20043;-77
2021/12/09 03:05:18;;;;;;;19.55;8.65;;;;;;;-3.58;84.24;99495.63;5117323;27;20521;-77
2021/12/09 03:07:46;;;;;;;19.20;9.00;;;;;;;-3.50;83.85;99499.09;5117176;27;20488;-77
2021/12/09 03:10:19;;;;;;;17.20;8.20;;;;;;;-3.51;83.94;99494.72;5116800;28;20073;-77
2021/12/09 03:12:49;;;;;;;19.00;8.27;;;;;;;-3.52;84.09;99498.22;5116936;28;20109;-76
2021/12/09 03:15:17;;;;;;;17.85;8.80;;;;;;;-3.54;83.90;99500.88;5117157;28;20044;-77
2021/12/09 03:17:47;;;;;;;23.95;10.75;;;;;;;-3.49;83.52;99501.72;5116640;28;20114;-77
2021/12/09 03:20:16;;;;;;;21.88;10.77;;;;;;;-3.52;83.40;99495.59;5096135;28;20139;-77
2021/12/09 03:22:45;;;;;;;21.80;10.68;;;;;;;-3.47;83.71;99498.19;5096401;28;20451;-78
2021/12/09 03:25:14;;;;;;;21.65;10.20;;;;;;;-3.46;84.60;99499.97;5105773;28;20056;-77
2021/12/09 03:27:42;;;;;;;19.92;8.88;;;;;;;-3.49;84.80;99496.44;5116771;28;20039;-77
2021/12/09 03:30:13;;;;;;;18.30;8.55;;;;;;;-3.39;84.52;99499.94;5116372;27;20048;-77
2021/12/09 03:32:41;;;;;;;22.15;9.43;;;;;;;-3.54;84.39;99498.22;5116386;28;20108;-77
2021/12/09 03:35:10;;;;;;;21.38;9.07;;;;;;;-3.44;83.42;99495.56;5116270;28;20409;-77
2021/12/09 03:37:38;;;;;;;20.08;8.82;;;;;;;-3.35;83.94;99491.09;5116269;27;20044;-77
2021/12/09 03:40:08;;;;;;;19.55;9.35;;;;;;;-3.49;83.78;99493.81;5116433;28;20056;-77
2021/12/09 03:42:36;;;;;;;18.40;8.95;;;;;;;-3.42;83.75;99497.31;5116324;27;20044;-77
2021/12/09 03:45:04;;;;;;;21.55;9.13;;;;;;;-3.45;84.69;99494.69;5115691;28;20066;-77
2021/12/09 03:47:33;;;;;;;19.98;9.40;;;;;;;-3.59;85.33;99494.72;5116470;28;20047;-77
2021/12/09 03:50:01;;;;;;;20.05;9.13;;;;;;;-3.43;84.47;99495.53;5116433;27;20500;-77
2021/12/09 03:52:29;;;;;;;20.55;8.80;;;;;;;-3.47;85.52;99498.19;5116204;27;20048;-77
2021/12/09 03:54:58;;;;;;;19.42;9.13;;;;;;;-3.45;84.72;99496.47;5116351;28;20043;-77
2021/12/09 03:57:25;;;;;;;20.27;9.65;;;;;;;-3.38;84.64;99492.91;5116156;27;20508;-77
2021/12/09 03:59:53;;;;;;;18.85;9.07;;;;;;;-3.32;85.19;99492.84;5115738;28;20110;-77
2021/12/09 04:02:21;;;;;;;19.98;8.35;;;;;;;-3.49;84.94;99496.44;5116150;28;20396;-77
2021/12/09 04:04:50;;;;;;;20.90;9.80;;;;;;;-3.32;84.48;99490.22;5115925;28;20096;-77
2021/12/09 04:07:18;;;;;;;20.85;8.93;;;;;;;-3.41;84.48;99490.28;5115979;27;20036;-77
2021/12/09 04:09:45;;;;;;;19.98;8.73;;;;;;;-3.49;84.61;99490.28;5115783;27;20058;-77
2021/12/09 04:12:14;;;;;;;22.80;9.77;;;;;;;-3.49;83.99;99482.38;5115586;27;20043;-77
2021/12/09 04:14:42;;;;;;;19.15;8.98;;;;;;;-3.41;84.82;99488.50;5115115;28;20554;-77
2021/12/09 04:17:09;;;;;;;20.08;8.98;;;;;;;-3.37;84.91;99484.09;5115397;28;20085;-77
2021/12/09 04:19:37;;;;;;;21.20;9.15;;;;;;;-3.67;85.21;99489.50;5115566;28;20128;-77
2021/12/09 04:22:06;;;;;;;20.90;9.30;;;;;;;-3.51;85.31;99492.94;5115293;28;20055;-77
2021/12/09 04:24:34;;;;;;;20.90;11.45;;;;;;;-3.50;86.02;99489.41;5115079;28;20090;-77
2021/12/09 04:27:02;;;;;;;23.10;10.90;;;;;;;-3.42;85.32;99481.44;5115222;28;20154;-77
2021/12/09 04:29:29;;;;;;;26.52;13.48;;;;;;;-3.52;86.47;99477.97;5114926;28;20044;-77
2021/12/09 04:31:57;;;;;;;40.70;20.33;;;;;;;-3.41;86.03;99477.06;5115242;28;20093;-77
2021/12/09 04:34:24;;;;;;;34.67;16.80;;;;;;;-3.50;86.37;99483.25;5115188;28;20055;-77
2021/12/09 04:36:52;;;;;;;28.65;15.13;;;;;;;-3.47;86.08;99492.91;5115193;27;20043;-77
2021/12/09 04:39:21;;;;;;;24.63;12.15;;;;;;;-3.50;86.59;99489.41;5114985;28;20039;-77
2021/12/09 04:41:48;;;;;;;20.90;10.32;;;;;;;-3.47;86.64;99482.34;5115052;27;20059;-77
2021/12/09 04:44:16;;;;;;;28.92;14.68;;;;;;;-3.38;86.13;99483.19;5114621;28;20489;-77
2021/12/09 04:46:44;;;;;;;38.30;18.02;;;;;;;-3.39;85.93;99483.22;5114795;28;20460;-77
2021/12/09 04:49:11;;;;;;;24.75;12.63;;;;;;;-3.53;85.66;99475.34;5114871;28;20507;-78
2021/12/09 04:51:39;;;;;;;20.88;10.15;;;;;;;-3.47;86.26;99472.69;5114429;28;20485;-77
2021/12/09 04:54:08;;;;;;;20.85;10.05;;;;;;;-3.54;86.76;99487.66;5115032;28;20047;-77
2021/12/09 04:56:38;;;;;;;21.00;11.13;;;;;;;-3.64;86.11;99486.84;5114409;27;20036;-77
2021/12/09 04:59:06;;;;;;;19.88;9.65;;;;;;;-3.54;86.13;99492.09;5115334;27;20043;-77
2021/12/09 05:01:34;;;;;;;21.90;10.48;;;;;;;-3.34;85.70;99484.06;5114568;28;20048;-77
2021/12/09 05:04:03;;;;;;;20.30;9.35;;;;;;;-3.29;85.48;99484.91;5114707;27;20072;-77
2021/12/09 05:06:31;;;;;;;23.52;11.52;;;;;;;-3.50;85.39;99484.13;5114535;27;20043;-77
2021/12/09 05:09:05;;;;;;;22.38;10.13;;;;;;;-3.62;85.55;99489.47;5114743;27;20047;-77
2021/12/09 05:11:48;;;;;;;29.58;14.50;;;;;;;-3.36;85.20;99491.97;5115842;27;20480;-77
2021/12/09 05:14:17;;;;;;;20.48;10.57;;;;;;;-3.43;86.08;99499.97;5115811;28;20423;-80
2021/12/09 05:16:46;;;;;;;26.98;13.05;;;;;;;-3.33;86.29;99496.38;5114433;28;20044;-77
2021/12/09 05:19:13;;;;;;;26.38;13.35;;;;;;;-3.32;85.91;99489.31;5112776;28;20114;-77
2021/12/09 05:21:41;;;;;;;26.15;13.55;;;;;;;-3.28;85.84;99504.25;5110817;28;20061;-77
2021/12/09 05:24:10;;;;;;;24.52;11.48;;;;;;;-3.35;85.37;99508.72;5110339;28;20047;-76
2021/12/09 05:26:43;;;;;;;25.20;10.52;;;;;;;-3.42;85.33;99507.88;5110403;28;20123;-77
2021/12/09 05:29:11;;;;;;;21.83;10.02;;;;;;;-3.53;86.08;99517.59;5111691;28;20043;-75
2021/12/09 05:34:26;;;;;;;23.88;11.10;;;;;;;-3.33;86.16;99522.81;5111774;28;20774;-77
2021/12/09 05:36:54;;;;;;;21.02;10.57;;;;;;;-3.21;85.58;99512.16;5110609;28;20039;-77
2021/12/09 05:39:21;;;;;;;23.67;10.82;;;;;;;-3.33;86.24;99516.63;5110622;28;20054;-76
2021/12/09 05:41:51;;;;;;;19.05;9.88;;;;;;;-3.22;85.62;99518.34;5110363;28;20047;-76
2021/12/09 05:44:18;;;;;;;21.75;10.07;;;;;;;-3.34;85.48;99521.03;5110563;27;20128;-75
2021/12/09 05:46:48;;;;;;;22.58;10.65;;;;;;;-3.41;85.98;99521.97;5110833;28;20044;-76
2021/12/09 05:49:16;;;;;;;24.95;12.82;;;;;;;-3.37;85.75;99526.34;5110842;28;20058;-76
2021/12/09 05:51:44;;;;;;;31.33;15.52;;;;;;;-3.37;86.95;99526.34;5110428;28;20130;-76
2021/12/09 05:54:12;;;;;;;25.65;12.18;;;;;;;-3.43;86.08;99526.38;5110466;27;20408;-77
2021/12/09 05:56:40;;;;;;;33.33;16.50;;;;;;;-3.35;85.88;99535.13;5110058;27;20054;-76
2021/12/09 05:59:10;;;;;;;28.42;15.07;;;;;;;-3.42;86.29;99538.69;5110530;27;20043;-76
2021/12/09 06:01:39;;;;;;;23.48;10.70;;;;;;;-3.27;85.41;99543.00;5110137;28;20059;-77
2021/12/09 06:04:10;;;;;;;22.77;10.63;;;;;;;-3.24;85.61;99553.59;5110335;28;20078;-77
2021/12/09 06:06:41;;;;;;;22.63;10.63;;;;;;;-3.49;86.81;99549.25;5111087;28;20409;-76
2021/12/09 06:09:10;;;;;;;22.25;10.07;;;;;;;-3.47;86.62;99554.56;5110643;28;20043;-77
2021/12/09 06:11:38;;;;;;;23.13;10.85;;;;;;;-3.29;86.96;99553.59;5109839;28;20070;-78
2021/12/09 06:14:06;;;;;;;22.40;10.68;;;;;;;-3.33;86.33;99551.84;5110855;28;20044;-76
2021/12/09 06:16:34;;;;;;;22.55;10.40;;;;;;;-3.32;86.48;99558.91;5113495;28;20048;-77
2021/12/09 06:19:02;;;;;;;25.13;11.10;;;;;;;-3.32;86.90;99552.72;5113474;28;20043;-77
2021/12/09 06:21:31;;;;;;;26.98;11.88;;;;;;;-3.37;87.15;99552.75;5113502;28;20109;-77
2021/12/09 06:24:01;;;;;;;22.48;10.60;;;;;;;-3.27;86.62;99557.13;5113013;27;20561;-77
2021/12/09 06:26:29;;;;;;;22.63;10.02;;;;;;;-3.23;86.47;99566.78;5113297;28;20081;-77
2021/12/09 06:28:56;;;;;;;22.92;10.80;;;;;;;-3.27;86.48;99564.16;5113519;28;20512;-76
2021/12/09 06:31:24;;;;;;;23.40;10.45;;;;;;;-3.36;86.61;99560.66;5113504;28;20499;-77
2021/12/09 06:33:52;;;;;;;34.00;10.77;;;;;;;-3.37;87.21;99563.31;5113484;28;20043;-77
2021/12/09 06:36:20;;;;;;;23.20;11.73;;;;;;;-3.24;86.71;99559.75;5113614;27;20047;-77
2021/12/09 06:38:49;;;;;;;41.88;16.60;;;;;;;-3.34;86.42;99576.53;5113070;28;20051;-77
2021/12/09 06:41:17;;;;;;;23.08;10.73;;;;;;;-3.43;87.24;99573.91;5113641;28;20059;-77
2021/12/09 06:43:44;;;;;;;79.40;38.88;;;;;;;-3.42;86.83;99578.31;5113349;28;20043;-77
2021/12/09 06:46:13;;;;;;;49.38;24.15;;;;;;;-3.22;86.52;99568.53;5113533;28;20040;-77
2021/12/09 06:48:42;;;;;;;80.28;34.40;;;;;;;-3.16;87.08;99572.94;5113270;28;20063;-77
2021/12/09 06:51:09;;;;;;;60.13;27.45;;;;;;;-3.14;86.84;99578.19;5113339;28;20401;-77
2021/12/09 06:53:38;;;;;;;89.68;32.75;;;;;;;-3.17;86.20;99565.00;5112989;27;20497;-77
2021/12/09 06:56:07;;;;;;;211.38;68.70;;;;;;;-3.06;86.77;99560.53;5113280;28;20048;-77
2021/12/09 06:58:35;;;;;;;237.93;76.30;;;;;;;-3.15;86.19;99563.22;5113199;27;20055;-77
2021/12/09 07:01:05;;;;;;;520.60;159.18;;;;;;;-3.12;86.95;99557.91;5113205;27;20040;-77
2021/12/09 07:03:32;;;;;;;823.67;275.05;;;;;;;-3.08;87.32;99554.38;5113116;28;20044;-77
2021/12/09 07:06:05;;;;;;;81.25;30.13;;;;;;;-3.13;86.76;99557.06;5113488;28;20048;-77
2021/12/09 07:08:35;;;;;;;316.20;82.72;;;;;;;-3.16;86.52;99554.44;5113742;27;20046;-77
2021/12/09 07:11:03;;;;;;;206.23;57.10;;;;;;;-3.27;86.96;99553.56;5113086;27;20047;-77
2021/12/09 07:13:32;;;;;;;72.20;24.27;;;;;;;-3.18;87.46;99547.38;5113274;28;20043;-77
2021/12/09 07:16:00;;;;;;;343.95;89.63;;;;;;;-3.16;87.21;99542.97;5113149;28;20047;-77
2021/12/09 07:18:28;;;;;;;293.23;86.55;;;;;;;-3.31;86.79;99544.81;5112813;28;20040;-77
2021/12/09 07:20:57;;;;;;;224.43;73.60;;;;;;;-3.08;86.94;99559.66;5114640;28;20480;-77
2021/12/09 07:23:25;;;;;;;141.82;48.22;;;;;;;-3.17;87.08;99563.25;5116272;28;20520;-77
2021/12/09 07:25:52;;;;;;;60.53;23.48;;;;;;;-3.05;87.03;99572.88;5116545;28;20036;-77
2021/12/09 07:28:20;;;;;;;50.42;23.13;;;;;;;-3.05;86.95;99572.88;5116785;28;20048;-77
2021/12/09 07:30:49;;;;;;;108.93;43.25;;;;;;;-3.08;86.44;99575.50;5116927;28;20050;-77
2021/12/09 07:33:17;;;;;;;105.70;40.42;;;;;;;-3.12;86.84;99573.75;5116435;27;20056;-77
2021/12/09 07:35:44;;;;;;;141.85;54.08;;;;;;;-3.23;88.13;99564.13;5116367;28;20046;-77
2021/12/09 07:38:12;;;;;;;155.10;66.70;;;;;;;-3.16;87.23;99558.81;5116080;28;20043;-77
2021/12/09 07:40:39;;;;;;;113.50;53.53;;;;;;;-2.98;86.39;99561.38;5116428;27;20048;-77
2021/12/09 07:43:07;;;;;;;102.43;48.13;;;;;;;-2.99;86.62;99549.06;5116370;28;20047;-77
2021/12/09 07:45:35;;;;;;;78.22;40.53;;;;;;;-3.02;86.80;99566.69;5116297;28;20047;-77
2021/12/09 07:48:04;;;;;;;74.50;37.63;;;;;;;-2.98;86.79;99571.97;5116236;28;20044;-77
2021/12/09 07:50:33;;;;;;;82.70;41.90;;;;;;;-3.03;86.34;99576.38;5116221;27;20105;-77
2021/12/09 07:53:01;;;;;;;41.42;21.35;;;;;;;-3.20;87.46;99574.69;5115612;27;20446;-77
2021/12/09 07:55:28;;;;;;;44.72;21.73;;;;;;;-3.04;86.84;99572.00;5116365;28;20477;-77
2021/12/09 07:57:56;;;;;;;32.80;15.52;;;;;;;-3.25;87.02;99571.19;5116077;27;20047;-77
2021/12/09 08:00:26;;;;;;;27.13;13.73;;;;;;;-3.27;86.80;99567.69;5116017;28;20047;-77
2021/12/09 08:02:54;;;;;;;24.85;12.77;;;;;;;-3.14;88.02;99560.56;5116172;27;20048;-77
2021/12/09 08:05:32;;;;;;;26.30;12.25;;;;;;;-3.08;87.45;99575.50;5115879;28;20043;-77
2021/12/09 08:08:00;;;;;;;28.38;12.45;;;;;;;-3.04;86.70;99574.63;5116380;28;20043;-77
2021/12/09 08:10:27;;;;;;;30.30;14.60;;;;;;;-3.03;87.48;99570.22;5116003;28;20082;-77
2021/12/09 08:12:57;;;;;;;32.63;14.73;;;;;;;-2.97;87.71;99573.72;5115633;28;20065;-77
2021/12/09 08:15:25;;;;;;;30.52;12.70;;;;;;;-3.36;88.46;99581.78;5115991;28;20065;-77
2021/12/09 08:18:25;;;;;;;31.17;13.18;;;;;;;-3.23;87.73;99566.78;5115465;28;20484;-77
2021/12/09 08:20:56;;;;;;;34.63;18.50;;;;;;;-3.00;86.88;99568.44;5114988;27;20463;-76
2021/12/09 08:23:24;;;;;;;38.90;18.70;;;;;;;-3.07;87.45;99566.69;5115699;28;20101;-78
2021/12/09 08:25:52;;;;;;;28.13;13.15;;;;;;;-3.20;88.41;99561.47;5115361;28;20050;-78
2021/12/09 08:28:20;;;;;;;38.28;18.20;;;;;;;-3.01;87.83;99553.47;5121696;27;20046;-78
2021/12/09 08:30:50;;;;;;;32.25;14.55;;;;;;;-3.08;88.00;99560.53;5115400;28;20048;-77
2021/12/09 08:33:18;;;;;;;40.80;21.48;;;;;;;-3.01;87.78;99550.84;5113619;27;20400;-77
2021/12/09 08:35:46;;;;;;;31.27;14.48;;;;;;;-3.09;87.47;99548.22;5113517;27;20043;-77
2021/12/09 08:38:15;;;;;;;29.50;13.15;;;;;;;-3.35;88.76;99540.44;5113970;27;20039;-77
2021/12/09 08:40:44;;;;;;;29.45;14.15;;;;;;;-3.05;88.43;99546.44;5113638;28;20088;-76
2021/12/09 08:43:11;;;;;;;64.50;30.50;;;;;;;-3.15;88.08;99529.75;5114649;27;20115;-77
2021/12/09 08:45:39;;;;;;;32.45;14.90;;;;;;;-3.34;89.32;99536.91;5113589;27;20051;-77
2021/12/09 08:48:07;;;;;;;33.10;14.38;;;;;;;-3.07;88.61;99532.34;5113687;28;20039;-76
2021/12/09 08:50:35;;;;;;;50.08;21.75;;;;;;;-3.17;88.66;99546.50;5114076;27;20044;-77
2021/12/09 08:53:04;;;;;;;43.72;19.05;;;;;;;-3.02;88.35;99559.66;5113499;27;20044;-77
2021/12/09 08:55:33;;;;;;;31.63;14.43;;;;;;;-3.23;88.11;99560.63;5113575;27;20043;-77
2021/12/09 08:58:01;;;;;;;33.08;15.50;;;;;;;-3.36;88.44;99557.16;5113330;28;20504;-76
2021/12/09 09:00:31;;;;;;;31.70;13.70;;;;;;;-3.13;88.02;99557.06;5113393;28;20032;-76
2021/12/09 09:02:59;;;;;;;31.38;13.80;;;;;;;-3.02;88.10;99548.19;5113775;27;20047;-77
2021/12/09 09:05:27;;;;;;;32.15;15.23;;;;;;;-3.08;88.01;99533.22;5113494;27;20039;-77
2021/12/09 09:07:56;;;;;;;62.05;26.05;;;;;;;-3.12;88.16;99531.50;5113805;28;20052;-76
2021/12/09 09:10:25;;;;;;;48.88;22.38;;;;;;;-3.26;88.79;99535.09;5114123;27;20050;-77
2021/12/09 09:12:55;;;;;;;41.40;20.33;;;;;;;-3.35;89.94;99535.13;5113109;27;20051;-77
2021/12/09 09:15:25;;;;;;;32.10;14.98;;;;;;;-3.25;89.02;99536.84;5112098;28;20047;-77
2021/12/09 09:17:53;;;;;;;34.35;14.70;;;;;;;-3.11;89.35;99538.53;5111337;28;20048;-77
2021/12/09 09:20:24;;;;;;;33.00;12.63;;;;;;;-3.47;89.71;99536.06;5111342;28;20050;-77
2021/12/09 09:22:52;;;;;;;36.25;15.32;;;;;;;-3.23;88.50;99529.78;5111751;28;20104;-77
2021/12/09 09:25:26;;;;;;;44.85;19.27;;;;;;;-2.93;88.34;99519.94;5110491;27;20412;-77
2021/12/09 09:27:56;;;;;;;203.55;81.60;;;;;;;-2.97;88.93;99502.34;5112604;28;20381;-77
2021/12/09 09:30:34;;;;;;;45.88;19.55;;;;;;;-2.98;88.42;99503.22;5109746;28;20051;-77
2021/12/09 09:33:03;;;;;;;36.97;15.85;;;;;;;-2.98;88.21;99518.19;5110235;28;20108;-77
2021/12/09 09:35:31;;;;;;;31.90;14.60;;;;;;;-3.11;88.58;99522.66;5110611;28;20473;-77
2021/12/09 09:37:58;;;;;;;35.70;14.88;;;;;;;-3.03;88.51;99520.00;5110021;28;20042;-77
2021/12/09 09:40:30;;;;;;;40.03;17.52;;;;;;;-2.89;87.95;99514.63;5110493;28;20451;-77
2021/12/09 09:43:03;;;;;;;60.92;25.17;;;;;;;-3.18;89.11;99526.25;5109685;28;20094;-78
2021/12/09 09:45:32;;;;;;;45.90;18.80;;;;;;;-2.95;88.22;99519.06;5110320;28;20047;-77
2021/12/09 09:48:00;;;;;;;58.97;27.75;;;;;;;-2.98;88.27;99515.56;5110138;28;20040;-76
2021/12/09 09:50:27;;;;;;;61.00;28.92;;;;;;;-2.93;88.91;99522.59;5110557;28;20432;-77
2021/12/09 09:52:55;;;;;;;53.88;22.92;;;;;;;-2.78;88.07;99518.97;5110369;28;20505;-77
2021/12/09 09:55:23;;;;;;;61.95;28.20;;;;;;;-2.81;87.86;99520.72;5109896;28;20500;-78
2021/12/09 09:57:51;;;;;;;53.55;21.85;;;;;;;-2.93;88.27;99521.69;5110187;28;20043;-77
2021/12/09 10:00:22;;;;;;;79.13;33.78;;;;;;;-2.73;88.25;99516.25;5110520;28;20535;-77
2021/12/09 10:02:53;;;;;;;78.82;32.55;;;;;;;-2.70;88.35;99516.25;5111808;28;20050;-78
2021/12/09 10:05:33;;;;;;;50.63;20.70;;;;;;;-2.72;88.46;99519.81;5110278;28;20043;-78
2021/12/09 10:08:01;;;;;;;62.95;26.83;;;;;;;-2.77;88.63;99511.88;5109298;28;20505;-77
2021/12/09 10:10:29;;;;;;;107.45;42.22;;;;;;;-2.70;88.30;99507.44;5109789;28;20052;-78
2021/12/09 10:13:02;;;;;;;61.08;26.98;;;;;;;-2.89;89.02;99507.56;5109684;28;20063;-78
2021/12/09 10:15:35;;;;;;;204.77;68.68;;;;;;;-2.66;87.81;99509.16;5111991;28;20446;-81
2021/12/09 10:18:03;;;;;;;85.88;34.53;;;;;;;-2.66;87.86;99503.88;5110377;28;20039;-76
2021/12/09 10:20:50;;;;;;;75.85;31.50;;;;;;;-2.85;88.16;99514.59;5112585;28;20059;-77
2021/12/09 10:23:25;;;;;;;70.13;28.90;;;;;;;-2.87;88.88;99512.84;5111462;28;20126;-77
2021/12/09 10:26:11;;;;;;;64.77;27.43;;;;;;;-2.82;88.12;99513.69;5108823;28;20047;-76
2021/12/09 10:28:40;;;;;;;56.40;25.50;;;;;;;-2.67;87.81;99523.28;5112077;28;20043;-77
2021/12/09 10:31:13;;;;;;;48.78;19.90;;;;;;;-2.67;87.80;99531.22;5109218;28;20031;-77
2021/12/09 10:34:07;;;;;;;38.33;14.93;;;;;;;-2.80;88.33;99539.25;5113581;27;20098;-77
2021/12/09 10:36:53;;;;;;;37.15;14.48;;;;;;;-2.76;88.72;99534.78;5110352;28;20042;-77
2021/12/09 10:39:25;;;;;;;34.47;14.98;;;;;;;-2.70;88.46;99529.47;5111737;28;20051;-77
2021/12/09 10:41:55;;;;;;;55.20;23.13;;;;;;;-2.60;88.06;99527.63;5110408;28;20725;-77
2021/12/09 10:44:41;;;;;;;34.38;16.73;;;;;;;-2.71;87.95;99521.56;5109559;28;20044;-77
2021/12/09 10:47:14;;;;;;;30.95;13.93;;;;;;;-2.69;88.38;99522.41;5111308;28;20442;-77
2021/12/09 10:49:55;;;;;;;30.88;12.93;;;;;;;-2.59;87.60;99516.16;5111183;28;20443;-76
2021/12/09 10:52:26;;;;;;;30.85;13.88;;;;;;;-2.64;87.64;99510.03;5110953;28;20047;-77
2021/12/09 10:54:55;;;;;;;33.20;14.68;;;;;;;-2.41;87.47;99501.91;5114823;27;20043;-77
2021/12/09 10:57:28;;;;;;;33.92;15.57;;;;;;;-2.53;88.18;99494.09;5115952;27;20039;-77
2021/12/09 10:59:57;;;;;;;50.17;22.77;;;;;;;-2.52;88.70;99493.19;5115270;28;20047;-77
2021/12/09 11:02:26;;;;;;;36.30;17.42;;;;;;;-2.52;88.54;99488.78;5115675;27;20047;-78
2021/12/09 11:05:09;;;;;;;30.73;14.77;;;;;;;-2.85;88.92;99492.56;5117892;28;20040;-78
2021/12/09 11:07:37;;;;;;;34.10;15.80;;;;;;;-2.74;89.66;99488.06;5118499;28;20044;-77
2021/12/09 11:10:22;;;;;;;38.60;17.13;;;;;;;-2.75;89.16;99482.81;5118252;28;20040;-76
2021/12/09 11:12:52;;;;;;;33.67;14.63;;;;;;;-2.55;88.77;99467.63;5114361;28;20050;-77
2021/12/09 11:15:21;;;;;;;44.45;18.73;;;;;;;-2.50;88.56;99473.75;5112346;28;20051;-78
2021/12/09 11:17:52;;;;;;;39.20;17.65;;;;;;;-2.41;87.92;99458.72;5115383;27;20063;-77
2021/12/09 11:20:43;;;;;;;35.88;15.63;;;;;;;-2.44;88.83;99459.63;5113941;28;20039;-77
2021/12/09 11:23:27;;;;;;;49.67;23.77;;;;;;;-2.38;87.77;99459.56;5114259;28;20500;-77
2021/12/09 11:25:58;;;;;;;47.33;23.08;;;;;;;-2.43;88.48;99453.44;5116372;28;20439;-76
2021/12/09 11:28:27;;;;;;;40.65;18.67;;;;;;;-2.62;88.96;99461.53;5117233;28;20040;-77
2021/12/09 11:31:12;;;;;;;50.35;24.17;;;;;;;-2.39;88.83;99460.44;5115604;28;20404;-77
2021/12/09 11:33:44;;;;;;;39.00;17.63;;;;;;;-2.30;87.55;99458.59;5117915;28;20089;-77